createdAt,value
2022-11-19T07:52:11.202Z,6.40
2022-11-19T07:54:39.272Z,6.77
2022-11-19T07:57:07.497Z,6.63
2022-11-19T07:59:35.501Z,7.07
2022-11-19T08:02:03.518Z,6.57
2022-11-19T08:04:31.702Z,6.70
2022-11-19T08:06:59.752Z,6.97
2022-11-19T08:09:29.160Z,7.50
2022-11-19T08:11:57.209Z,7.57
2022-11-19T08:14:25.228Z,7.03
2022-11-19T08:17:10.936Z,7.20
2022-11-19T08:19:38.914Z,8.00
2022-11-19T08:22:06.975Z,7.37
2022-11-19T08:24:36.354Z,7.07
2022-11-19T08:27:05.388Z,7.30
2022-11-19T08:29:33.672Z,6.70
2022-11-19T08:32:01.809Z,6.73
2022-11-19T08:34:32.284Z,7.30
2022-11-19T08:37:00.395Z,7.53
2022-11-19T08:39:29.569Z,7.37
2022-11-19T08:42:17.426Z,7.80
2022-11-19T08:44:45.505Z,6.37
2022-11-19T08:47:13.704Z,7.13
2022-11-19T08:49:41.831Z,7.43
2022-11-19T08:52:09.893Z,6.30
2022-11-19T08:54:38.250Z,5.63
2022-11-19T08:57:07.955Z,5.60
2022-11-19T08:59:36.232Z,5.30
2022-11-19T09:02:04.351Z,5.10
2022-11-19T09:04:32.528Z,5.60
2022-11-19T09:07:00.674Z,6.47
2022-11-19T09:09:28.955Z,6.50
2022-11-19T09:11:57.058Z,5.67
2022-11-19T09:14:26.595Z,5.60
2022-11-19T09:16:54.682Z,5.60
2022-11-19T09:19:22.825Z,5.30
2022-11-19T09:21:50.977Z,5.93
2022-11-19T09:24:19.395Z,5.47
2022-11-19T09:26:52.595Z,5.87
2022-11-19T09:29:21.397Z,7.87
2022-11-19T09:31:51.564Z,6.57
2022-11-19T09:34:20.543Z,10.60
2022-11-19T09:36:49.508Z,6.50
2022-11-19T09:39:18.280Z,7.20
2022-11-19T09:41:53.417Z,7.10
2022-11-19T09:44:49.767Z,5.93
2022-11-19T09:47:27.328Z,4.97
2022-11-19T09:50:06.526Z,5.07
2022-11-19T09:52:43.007Z,5.47
2022-11-19T09:55:18.152Z,5.53
2022-11-19T09:57:51.273Z,5.20
2022-11-19T10:00:22.165Z,5.13
2022-11-19T10:02:53.661Z,5.33
2022-11-19T10:05:31.787Z,5.40
2022-11-19T10:08:12.908Z,5.87
2022-11-19T10:10:43.621Z,5.30
2022-11-19T10:13:26.522Z,5.83
2022-11-19T10:16:07.073Z,5.83
2022-11-19T10:18:44.566Z,5.30
2022-11-19T10:21:18.773Z,5.90
2022-11-19T10:23:51.231Z,5.17
2022-11-19T10:26:24.181Z,5.30
2022-11-19T10:28:57.074Z,4.93
2022-11-19T10:31:38.493Z,4.50
2022-11-19T10:34:16.279Z,5.47
2022-11-19T10:36:49.131Z,4.60
2022-11-19T10:39:21.582Z,4.97
2022-11-19T10:41:53.633Z,4.73
2022-11-19T10:44:45.147Z,5.37
2022-11-19T10:47:19.088Z,9.87
2022-11-19T10:49:53.367Z,15.90
2022-11-19T10:56:41.521Z,20.00
2022-11-19T10:59:13.534Z,21.67
2022-11-19T11:01:44.789Z,22.43
2022-11-19T11:04:18.300Z,24.23
2022-11-19T11:06:54.418Z,24.87
2022-11-19T11:12:16.847Z,21.00
2022-11-19T11:58:34.355Z,15.87
2022-11-19T12:01:15.797Z,15.20
2022-11-19T12:03:55.284Z,14.53
2022-11-19T12:06:26.718Z,13.43
2022-11-19T12:14:47.546Z,7.53
2022-11-19T12:17:31.304Z,7.23
2022-11-19T12:20:14.659Z,7.77
2022-11-19T12:22:51.852Z,8.03
2022-11-19T12:25:25.784Z,8.03
2022-11-19T12:28:08.819Z,7.13
2022-11-19T12:30:50.845Z,6.77
2022-11-19T12:33:29.713Z,6.50
2022-11-19T12:36:11.611Z,7.33
2022-11-19T12:38:49.781Z,7.50
2022-11-19T12:41:46.974Z,7.80
2022-11-19T12:44:26.434Z,7.73
2022-11-19T12:47:01.690Z,8.43
2022-11-19T12:49:56.190Z,8.17
2022-11-19T12:52:36.581Z,8.43
2022-11-19T12:55:14.434Z,8.43
2022-11-19T12:57:51.262Z,8.60
2022-11-19T13:00:21.516Z,8.77
2022-11-19T13:03:12.305Z,8.90
2022-11-19T13:05:47.509Z,9.03
2022-11-19T13:08:21.159Z,9.17
2022-11-19T13:10:54.034Z,13.10
2022-11-19T13:13:27.778Z,17.17
2022-11-19T13:16:00.059Z,20.70
2022-11-19T13:18:33.752Z,24.37
2022-11-19T13:21:04.915Z,28.37
2022-11-19T13:23:37.435Z,29.20
2022-11-19T13:26:10.109Z,32.80
2022-11-19T13:28:43.233Z,32.70
2022-11-19T13:31:19.224Z,35.73
2022-11-19T13:44:41.632Z,34.00
2022-11-19T13:47:13.731Z,34.97
2022-11-19T13:49:45.218Z,30.97
2022-11-19T13:52:23.552Z,27.27
2022-11-19T13:54:51.944Z,27.87
2022-11-19T13:57:30.829Z,27.87
